Hovedside
METAR-TAF:

METAR-TAF

Lufthavner :

Bardufoss, Norge

Bardufoss lufthavn

breddegrad: 69-04N, lengdegrad: 018-32E, høyde over havet: 7 m

Gjeldene værobservasjon

Denne rapporten ble laget for 16 minutter siden, klokken 14:20 UTC
Vind 12 kt fra Øst-sørøst
Temperatur -4°C
Luftfuktighet 49%
Trykk 1018 hPa
Sikt 10 km eller mer
Få skyer i en høyde av 3500 ft

METAR: ENDU 221420Z 12012KT 9999 FEW035 M04/M13 Q1018 TEMPO 11015G25KT RMK WIND 1100FT VRB02KT WIND 2200FT 14023KT

Tid: 15:36 (14:36 UTC)

Varsel

Varsel gyldig fra 22. klokken 12 UTC til 23. klokken 12 UTC
Vind 15 kt fra Øst
Sikt 10 km eller mer
Få skyer i en høyde av 3000 ft
Spredte skyer i en høyde av 7000 ft
Midlertidig
fra 22. klokken 12 UTC til 23. klokken 06 UTC
Vind 20 kt fra Øst-sørøst med vindkast opp mot 30 kt
Midlertidig
fra 23. klokken 06 UTC til 23. klokken 12 UTC
Vind 30 kt fra Øst-sørøst med vindkast opp mot 45 kt

TAF: ENDU 2212/2312 09015KT 9999 FEW030 SCT070 TEMPO 2212/2306 12020G30KT TEMPO 2306/2312 12030G45KT

Værobservasjoner og værvarsel for over 4000 flyplasser (METAR- og TAF-rapporter).

Tilgjengelige stasjoner er representert av de røde og gule prikkene på kartet.

Hold musepekeren over prikken for å se navnet på stasjonen.

Klikk så for å se værobservasjoner og -varsler.

For å forandre kartet kan du klikke på den grønne knappen med svart kryss for å zoome inn, på den grønne knappen med strek for å zoome ut, eller på de grønne pilene for å se tilstøtende kart.


METAR-TAF: